Time;durP1;ratioP1;P1;durP2;ratioP2;P2;SDS_P1;SDS_P2;PMS_P1;PMS_P2;Temp;Humidity;BMP_temperature;BMP_pressure;BME280_temperature;BME280_humidity;BME280_pressure;Samples;Min_cycle;Max_cycle;Signal;HPM_P1;HPM_P2
2022/06/22 00:00:00;;;;;;;0.30;0.30;;;26.90;82.90;;;;;;5062022;28;20057;-60
2022/06/22 00:02:41;;;;;;;0.20;0.20;;;26.90;83.00;;;;;;5070205;28;20056;-61
2022/06/22 00:05:21;;;;;;;0.63;0.50;;;26.90;82.90;;;;;;5050902;28;20055;-63
2022/06/22 00:07:50;;;;;;;;;;;26.90;82.90;;;;;;5051026;28;20052;-59
2022/06/22 00:10:33;;;;;;;0.38;0.38;;;26.90;82.90;;;;;;5059389;28;20470;-59
2022/06/22 00:13:01;;;;;;;0.30;0.30;;;26.90;82.90;;;;;;5054114;28;20048;-61
2022/06/22 00:15:39;;;;;;;0.20;0.20;;;26.90;82.90;;;;;;5061414;28;20159;-61
2022/06/22 00:18:26;;;;;;;0.30;0.30;;;26.90;83.00;;;;;;5065726;28;20331;-64
2022/06/22 00:20:56;;;;;;;0.47;0.47;;;26.90;83.00;;;;;;5058818;28;20060;-59
2022/06/22 00:23:42;;;;;;;0.20;0.20;;;26.90;83.00;;;;;;5069343;28;20048;-59
2022/06/22 00:26:27;;;;;;;0.30;0.30;;;26.80;83.00;;;;;;5037590;28;20365;-63
2022/06/22 00:29:04;;;;;;;0.30;0.30;;;26.90;83.60;;;;;;5069066;28;20049;-65
2022/06/22 00:31:44;;;;;;;0.20;0.20;;;26.80;83.00;;;;;;5071220;28;20055;-64
2022/06/22 00:34:11;;;;;;;1.00;0.50;;;26.80;83.00;;;;;;5072088;28;20053;-63
2022/06/22 00:36:54;;;;;;;2.97;1.65;;;26.90;83.00;;;;;;5065990;28;20049;-63
2022/06/22 00:39:22;;;;;;;0.32;0.32;;;26.80;83.00;;;;;;5074008;28;20052;-61
2022/06/22 00:41:59;;;;;;;0.40;0.40;;;26.80;83.00;;;;;;5066438;28;20048;-59
2022/06/22 00:44:31;;;;;;;0.30;0.30;;;26.80;83.00;;;;;;5057145;28;20048;-62
2022/06/22 00:47:05;;;;;;;0.20;0.20;;;26.80;83.00;;;;;;5031353;28;20053;-61
2022/06/22 00:49:32;;;;;;;0.30;0.30;;;26.80;83.00;;;;;;5058707;28;20099;-60
2022/06/22 00:52:08;;;;;;;0.20;0.20;;;26.80;83.00;;;;;;5033695;28;20053;-60
2022/06/22 00:54:37;;;;;;;0.20;0.20;;;26.80;83.00;;;;;;5051666;28;20064;-57
2022/06/22 00:57:22;;;;;;;0.47;0.47;;;26.80;83.00;;;;;;5049898;28;20049;-61
2022/06/22 00:59:58;;;;;;;0.40;0.40;;;26.80;83.10;;;;;;5056314;28;20044;-63
2022/06/22 01:02:50;;;;;;;0.30;0.30;;;26.70;83.00;;;;;;5071418;28;20423;-59
2022/06/22 01:05:27;;;;;;;0.35;0.35;;;26.80;83.00;;;;;;5064140;28;20059;-60
2022/06/22 01:08:15;;;;;;;0.20;0.20;;;26.80;83.10;;;;;;5057920;28;20057;-60
2022/06/22 01:10:57;;;;;;;0.40;0.40;;;26.80;83.60;;;;;;5057176;28;20051;-56
2022/06/22 01:13:28;;;;;;;0.28;0.28;;;26.80;83.10;;;;;;5062609;28;20055;-59
2022/06/22 01:15:58;;;;;;;0.50;0.50;;;26.70;83.00;;;;;;5062032;28;20041;-59
2022/06/22 01:18:53;;;;;;;0.20;0.20;;;26.80;83.10;;;;;;5062082;28;20056;-63
2022/06/22 01:21:30;;;;;;;0.20;0.20;;;26.80;83.10;;;;;;5060818;28;20048;-65
2022/06/22 01:24:28;;;;;;;0.20;0.20;;;26.70;83.00;;;;;;5060422;28;20051;-62
2022/06/22 01:27:34;;;;;;;0.20;0.20;;;26.70;83.00;;;;;;5049513;28;20052;-59
2022/06/22 01:30:16;;;;;;;0.30;0.30;;;26.70;83.10;;;;;;5068326;28;20352;-60
2022/06/22 01:32:44;;;;;;;0.20;0.20;;;26.70;83.10;;;;;;5060369;28;20411;-58
2022/06/22 01:35:22;;;;;;;0.20;0.20;;;26.70;83.10;;;;;;5057082;28;20048;-60
2022/06/22 01:37:49;;;;;;;0.20;0.20;;;26.70;83.10;;;;;;5049518;28;20408;-63
2022/06/22 01:40:18;;;;;;;0.20;0.20;;;26.70;83.10;;;;;;5057694;28;20432;-63
2022/06/22 01:42:57;;;;;;;0.20;0.20;;;26.70;83.10;;;;;;5061691;28;20465;-64
2022/06/22 01:45:45;;;;;;;0.20;0.20;;;26.70;83.10;;;;;;5056919;28;20053;-57
2022/06/22 01:48:19;;;;;;;0.30;0.30;;;26.70;83.10;;;;;;5064387;28;20141;-59
2022/06/22 01:51:01;;;;;;;0.20;0.20;;;26.70;83.10;;;;;;5076626;28;20068;-58
2022/06/22 01:53:39;;;;;;;0.20;0.20;;;26.70;83.20;;;;;;5048050;28;20057;-61
2022/06/22 01:56:12;;;;;;;1.95;1.13;;;26.70;83.10;;;;;;5049498;28;20051;-64
2022/06/22 01:58:51;;;;;;;0.20;0.20;;;26.70;83.20;;;;;;5051216;28;20057;-60
2022/06/22 02:01:42;;;;;;;0.22;0.22;;;26.70;83.10;;;;;;5057350;28;20052;-60
2022/06/22 02:04:22;;;;;;;0.20;0.20;;;26.70;83.10;;;;;;5037028;28;20056;-61
2022/06/22 02:10:11;;;;;;;1.20;0.43;;;26.60;83.10;;;;;;5060364;28;20036;-63
2022/06/22 02:13:02;;;;;;;0.20;0.20;;;26.70;83.20;;;;;;5061078;28;20052;-56
2022/06/22 02:15:38;;;;;;;0.30;0.30;;;26.70;83.20;;;;;;5040572;28;20057;-68
2022/06/22 02:18:21;;;;;;;0.30;0.30;;;26.70;83.20;;;;;;5058582;28;20410;-61
2022/06/22 02:20:49;;;;;;;0.20;0.20;;;26.70;83.20;;;;;;5060371;28;20049;-58
2022/06/22 02:23:22;;;;;;;;;;;26.70;83.20;;;;;;5032034;28;20052;-59
2022/06/22 02:26:09;;;;;;;0.20;0.20;;;26.60;83.20;;;;;;5055261;28;19924;-59
2022/06/22 02:28:37;;;;;;;0.20;0.20;;;26.60;83.10;;;;;;5051555;28;20044;-63
2022/06/22 02:31:05;;;;;;;0.25;0.25;;;26.60;83.20;;;;;;5054586;28;20044;-61
2022/06/22 02:33:35;;;;;;;0.65;0.63;;;26.60;83.20;;;;;;5072057;28;20072;-62
2022/06/22 02:36:03;;;;;;;0.30;0.30;;;26.60;83.20;;;;;;5062342;28;20192;-61
2022/06/22 02:38:30;;;;;;;0.20;0.20;;;26.60;83.20;;;;;;5055282;28;20045;-59
2022/06/22 02:46:35;;;;;;;;;;;26.60;83.20;;;;;;5054685;28;20420;-65
2022/06/22 02:49:12;;;;;;;0.30;0.30;;;26.60;83.20;;;;;;5051569;28;19924;-58
2022/06/22 02:51:45;;;;;;;0.20;0.20;;;26.60;83.20;;;;;;5055967;28;20155;-62
2022/06/22 02:54:35;;;;;;;0.20;0.20;;;26.60;83.20;;;;;;5058017;28;20075;-60
2022/06/22 02:57:06;;;;;;;0.75;0.75;;;26.60;83.30;;;;;;5048514;28;20049;-58
2022/06/22 02:59:34;;;;;;;0.20;0.20;;;26.60;83.30;;;;;;5065109;28;20048;-60
2022/06/22 03:02:03;;;;;;;0.20;0.20;;;26.60;83.20;;;;;;5058055;28;20055;-61
2022/06/22 03:04:31;;;;;;;0.20;0.20;;;26.60;83.30;;;;;;5050804;28;20052;-58
2022/06/22 03:06:59;;;;;;;0.73;0.35;;;26.60;83.30;;;;;;5052764;28;20057;-57
2022/06/22 03:09:28;;;;;;;1.58;1.15;;;26.60;83.30;;;;;;5050249;28;20045;-58
2022/06/22 03:11:58;;;;;;;0.20;0.20;;;26.50;83.30;;;;;;5062620;28;20071;-58
2022/06/22 03:15:00;;;;;;;0.30;0.30;;;26.60;83.30;;;;;;5064562;28;20056;-59
2022/06/22 03:17:34;;;;;;;0.30;0.30;;;26.50;83.30;;;;;;5024199;28;20383;-60
2022/06/22 03:20:08;;;;;;;0.30;0.30;;;26.50;83.30;;;;;;5061386;28;20056;-60
2022/06/22 03:22:43;;;;;;;0.20;0.20;;;26.50;83.30;;;;;;5052921;28;20055;-58
2022/06/22 03:25:59;;;;;;;0.22;0.22;;;26.50;83.30;;;;;;5056425;28;20047;-59
2022/06/22 03:28:41;;;;;;;0.40;0.35;;;26.50;83.30;;;;;;5003330;28;20058;-61
2022/06/22 03:31:13;;;;;;;0.20;0.20;;;26.50;83.30;;;;;;5056465;28;20082;-60
2022/06/22 03:33:53;;;;;;;0.20;0.20;;;26.50;83.30;;;;;;5044735;28;20052;-56
2022/06/22 03:36:33;;;;;;;0.43;0.43;;;26.50;83.40;;;;;;5054232;28;20072;-64
2022/06/22 03:39:10;;;;;;;0.20;0.20;;;26.50;83.30;;;;;;5047788;28;20083;-62
2022/06/22 03:41:59;;;;;;;;;;;26.50;83.30;;;;;;5057530;28;20381;-60
2022/06/22 03:44:33;;;;;;;0.20;0.20;;;26.50;83.40;;;;;;5056253;28;19921;-60
2022/06/22 03:47:17;;;;;;;0.30;0.30;;;26.50;83.40;;;;;;5052370;28;20480;-62
2022/06/22 03:50:04;;;;;;;0.20;0.20;;;26.50;83.40;;;;;;5056550;28;20060;-59
2022/06/22 03:52:47;;;;;;;0.20;0.20;;;26.50;83.40;;;;;;5046975;28;20308;-59
2022/06/22 03:55:19;;;;;;;0.50;0.50;;;26.50;83.40;;;;;;5052476;28;20057;-59
2022/06/22 03:57:49;;;;;;;0.47;0.47;;;26.40;83.80;;;;;;5062059;28;20109;-59
2022/06/22 04:00:17;;;;;;;0.20;0.20;;;26.50;83.50;;;;;;5047777;28;20457;-62
2022/06/22 04:02:45;;;;;;;0.30;0.30;;;26.50;83.50;;;;;;5045358;28;20041;-61
2022/06/22 04:05:17;;;;;;;0.20;0.20;;;26.50;83.40;;;;;;5062115;28;21675;-62
2022/06/22 04:07:45;;;;;;;0.80;0.50;;;26.40;83.40;;;;;;5047277;28;20048;-62
2022/06/22 04:10:48;;;;;;;0.20;0.20;;;26.50;83.40;;;;;;5061159;28;20055;-62
2022/06/22 04:13:47;;;;;;;0.20;0.20;;;26.50;83.40;;;;;;5049650;28;20044;-59
2022/06/22 04:16:26;;;;;;;0.35;0.35;;;26.40;83.40;;;;;;5040866;28;20073;-59
2022/06/22 04:18:59;;;;;;;0.20;0.20;;;26.40;83.40;;;;;;5056646;28;20037;-62
2022/06/22 04:21:35;;;;;;;0.47;0.40;;;26.50;83.40;;;;;;5062031;28;20052;-63
2022/06/22 04:24:11;;;;;;;0.30;0.30;;;26.50;83.40;;;;;;5050783;28;20063;-60
2022/06/22 04:26:54;;;;;;;0.40;0.40;;;26.40;83.30;;;;;;5059846;28;20055;-58
2022/06/22 04:29:38;;;;;;;0.20;0.20;;;26.40;83.40;;;;;;5047376;28;20053;-62
2022/06/22 04:32:29;;;;;;;0.45;0.45;;;26.40;83.40;;;;;;5064747;28;20058;-59
2022/06/22 04:35:27;;;;;;;0.20;0.20;;;26.40;83.40;;;;;;5052118;28;20048;-63
2022/06/22 04:38:01;;;;;;;0.20;0.20;;;26.50;83.40;;;;;;5048667;28;20044;-61
2022/06/22 04:40:48;;;;;;;0.30;0.30;;;26.50;83.40;;;;;;5061263;28;20063;-62
2022/06/22 04:43:16;;;;;;;0.20;0.20;;;26.50;83.50;;;;;;5051603;28;20045;-60
2022/06/22 04:45:46;;;;;;;3.30;1.40;;;26.40;83.30;;;;;;5058148;28;20045;-62
2022/06/22 04:48:36;;;;;;;0.22;0.22;;;26.50;83.40;;;;;;5051184;28;20041;-61
2022/06/22 04:51:06;;;;;;;0.40;0.40;;;26.50;83.50;;;;;;5065469;28;20045;-62
2022/06/22 04:53:42;;;;;;;0.22;0.22;;;26.40;83.40;;;;;;5053872;28;20048;-58
2022/06/22 04:56:18;;;;;;;0.20;0.20;;;26.40;83.40;;;;;;5064645;28;20040;-61
2022/06/22 04:58:53;;;;;;;1.17;0.57;;;26.50;83.40;;;;;;5051079;28;20392;-62
2022/06/22 05:01:28;;;;;;;0.30;0.30;;;26.50;83.40;;;;;;5051579;28;20041;-56
2022/06/22 05:04:00;;;;;;;0.40;0.40;;;26.40;83.40;;;;;;5051531;28;20052;-64
2022/06/22 05:06:38;;;;;;;0.30;0.30;;;26.50;83.50;;;;;;5071574;28;20056;-56
2022/06/22 05:09:15;;;;;;;0.28;0.28;;;26.40;83.50;;;;;;5052474;28;20056;-63
2022/06/22 05:11:46;;;;;;;0.38;0.38;;;26.40;83.40;;;;;;5068256;28;20139;-64
2022/06/22 05:14:25;;;;;;;0.20;0.20;;;26.40;83.40;;;;;;5056960;28;20045;-59
2022/06/22 05:17:04;;;;;;;0.30;0.30;;;26.40;83.40;;;;;;5049601;28;20057;-60
2022/06/22 05:19:50;;;;;;;0.40;0.40;;;26.40;83.50;;;;;;5063708;28;20491;-61
2022/06/22 05:22:18;;;;;;;0.20;0.20;;;26.40;83.40;;;;;;5053083;28;20747;-57
2022/06/22 05:25:00;;;;;;;0.38;0.38;;;26.40;83.40;;;;;;5060648;28;20049;-61
2022/06/22 05:27:45;;;;;;;0.30;0.30;;;26.40;83.40;;;;;;5055186;28;20077;-60
2022/06/22 05:30:13;;;;;;;0.22;0.22;;;26.40;83.40;;;;;;5069070;28;20048;-58
2022/06/22 05:32:50;;;;;;;0.30;0.30;;;26.40;83.40;;;;;;5068340;28;20052;-59
2022/06/22 05:35:28;;;;;;;0.20;0.20;;;26.40;83.40;;;;;;5041145;28;20448;-59
2022/06/22 05:37:59;;;;;;;0.30;0.30;;;26.40;83.50;;;;;;5051198;28;20041;-60
2022/06/22 05:40:29;;;;;;;0.20;0.20;;;26.40;83.50;;;;;;5067026;28;20048;-59
2022/06/22 05:42:57;;;;;;;0.52;0.47;;;26.40;83.50;;;;;;5067435;28;20068;-59
2022/06/22 05:45:33;;;;;;;0.28;0.28;;;26.40;83.50;;;;;;5046383;28;20056;-61
2022/06/22 05:48:01;;;;;;;0.47;0.47;;;26.40;83.50;;;;;;5053377;28;20048;-62
2022/06/22 05:50:34;;;;;;;;;;;26.40;83.50;;;;;;5064907;28;20057;-57
2022/06/22 05:53:41;;;;;;;0.30;0.30;;;26.40;83.50;;;;;;5033733;28;19925;-62
2022/06/22 05:56:16;;;;;;;0.20;0.20;;;26.40;83.50;;;;;;5052319;28;20053;-64
2022/06/22 05:58:59;;;;;;;0.20;0.20;;;26.40;83.50;;;;;;5053052;28;20052;-60
2022/06/22 06:01:55;;;;;;;0.28;0.28;;;26.40;83.50;;;;;;5064538;28;20083;-61
2022/06/22 06:04:29;;;;;;;0.20;0.20;;;26.40;83.50;;;;;;5059662;28;20495;-59
2022/06/22 06:07:04;;;;;;;0.20;0.20;;;26.40;83.50;;;;;;5014129;28;20312;-58
2022/06/22 06:09:34;;;;;;;0.30;0.30;;;26.40;83.50;;;;;;5026479;28;20164;-65
2022/06/22 06:12:24;;;;;;;0.52;0.52;;;26.40;83.50;;;;;;5029703;28;20073;-62
2022/06/22 06:14:54;;;;;;;0.20;0.20;;;26.40;83.50;;;;;;5002079;28;20057;-57
2022/06/22 06:17:33;;;;;;;0.32;0.32;;;26.40;83.40;;;;;;5009415;28;20041;-58
2022/06/22 06:20:02;;;;;;;0.30;0.30;;;26.40;83.40;;;;;;5016228;28;20414;-60
2022/06/22 06:22:31;;;;;;;0.20;0.20;;;26.40;83.50;;;;;;5009539;28;20053;-59
2022/06/22 06:27:55;;;;;;;0.20;0.20;;;26.50;84.00;;;;;;5018861;28;20065;-60
2022/06/22 06:30:46;;;;;;;0.80;0.40;;;26.40;83.40;;;;;;5027708;28;20053;-62
2022/06/22 06:33:18;;;;;;;0.30;0.30;;;26.50;83.40;;;;;;5030793;28;20065;-57
2022/06/22 06:35:51;;;;;;;0.30;0.30;;;26.50;83.40;;;;;;5026866;28;20049;-61
2022/06/22 06:38:30;;;;;;;1.00;0.40;;;26.50;83.40;;;;;;5011485;28;20065;-63
2022/06/22 06:41:12;;;;;;;0.30;0.30;;;26.50;83.40;;;;;;5037066;28;20042;-62
2022/06/22 06:43:39;;;;;;;0.28;0.28;;;26.50;83.40;;;;;;5024738;28;20825;-62
2022/06/22 06:46:25;;;;;;;0.25;0.25;;;26.50;83.90;;;;;;5023640;28;20046;-62
2022/06/22 06:49:02;;;;;;;0.57;0.57;;;26.50;83.40;;;;;;5011345;28;20505;-62
2022/06/22 06:51:32;;;;;;;0.40;0.40;;;26.50;83.40;;;;;;5018367;28;20054;-66
2022/06/22 06:54:07;;;;;;;0.30;0.30;;;26.50;83.40;;;;;;5012999;28;20060;-60
2022/06/22 06:56:43;;;;;;;0.30;0.30;;;26.50;83.40;;;;;;5024497;28;20054;-60
2022/06/22 06:59:16;;;;;;;0.57;0.57;;;26.50;83.30;;;;;;5026929;28;20049;-62
2022/06/22 07:01:46;;;;;;;0.20;0.20;;;26.60;83.40;;;;;;5019927;28;20505;-61
2022/06/22 07:04:23;;;;;;;0.40;0.40;;;26.60;83.40;;;;;;5028405;28;20469;-64
2022/06/22 07:06:54;;;;;;;0.30;0.30;;;26.60;83.40;;;;;;5052515;28;20432;-57
2022/06/22 07:09:31;;;;;;;0.30;0.30;;;26.60;83.40;;;;;;5039009;28;20056;-62
2022/06/22 07:12:17;;;;;;;0.77;0.50;;;26.60;83.40;;;;;;5035900;28;20040;-59
2022/06/22 07:14:45;;;;;;;0.23;0.23;;;26.60;83.40;;;;;;5068510;28;20486;-57
2022/06/22 07:17:16;;;;;;;1.55;0.90;;;26.60;83.40;;;;;;5036824;28;20044;-61
2022/06/22 07:19:45;;;;;;;0.20;0.20;;;26.60;83.50;;;;;;5053532;28;20064;-61
2022/06/22 07:22:30;;;;;;;0.20;0.20;;;26.60;83.40;;;;;;5047039;28;20037;-63
2022/06/22 07:25:18;;;;;;;0.20;0.20;;;26.60;83.50;;;;;;5065600;28;20041;-62
2022/06/22 07:27:54;;;;;;;0.28;0.28;;;26.60;83.50;;;;;;5057486;28;20052;-59
2022/06/22 07:30:37;;;;;;;0.40;0.40;;;26.60;83.50;;;;;;5080909;28;20052;-58
2022/06/22 07:33:19;;;;;;;0.20;0.20;;;26.60;83.60;;;;;;5073984;28;20053;-60
2022/06/22 07:35:55;;;;;;;0.30;0.30;;;26.60;83.60;;;;;;5059302;28;20076;-64
2022/06/22 07:38:41;;;;;;;0.40;0.40;;;26.60;83.60;;;;;;5038510;28;20327;-59
2022/06/22 07:41:18;;;;;;;0.20;0.20;;;26.60;83.60;;;;;;5057706;28;20424;-59
2022/06/22 07:44:01;;;;;;;0.30;0.30;;;26.60;83.60;;;;;;5064069;28;20043;-58
2022/06/22 07:46:37;;;;;;;0.30;0.30;;;26.60;83.60;;;;;;5056704;28;20657;-60
2022/06/22 07:49:17;;;;;;;0.30;0.30;;;26.60;83.70;;;;;;5051906;28;20048;-65
2022/06/22 07:51:52;;;;;;;0.40;0.40;;;26.60;83.70;;;;;;5050302;28;20048;-63
2022/06/22 07:54:41;;;;;;;0.20;0.20;;;26.60;83.70;;;;;;5057754;28;20056;-62
2022/06/22 07:57:18;;;;;;;0.20;0.20;;;26.60;83.70;;;;;;5068236;28;20041;-61
2022/06/22 07:59:51;;;;;;;0.25;0.25;;;26.70;83.80;;;;;;5059330;28;20052;-60
2022/06/22 08:02:27;;;;;;;0.30;0.30;;;26.60;83.70;;;;;;5053986;28;20044;-63
2022/06/22 08:05:07;;;;;;;0.20;0.20;;;26.60;83.60;;;;;;5038166;28;20059;-61
2022/06/22 08:08:05;;;;;;;0.20;0.20;;;26.60;83.70;;;;;;5055903;28;20044;-59
2022/06/22 08:10:44;;;;;;;0.38;0.38;;;26.60;83.70;;;;;;5046108;28;20052;-58
2022/06/22 08:13:24;;;;;;;0.40;0.40;;;26.70;83.80;;;;;;5029345;28;20060;-64
2022/06/22 08:16:09;;;;;;;0.30;0.30;;;26.70;83.80;;;;;;5052967;28;20085;-63
2022/06/22 08:18:37;;;;;;;0.30;0.30;;;26.70;83.80;;;;;;5057171;28;20048;-63
2022/06/22 08:21:06;;;;;;;0.20;0.20;;;26.70;83.90;;;;;;5060715;28;20059;-62
2022/06/22 08:23:35;;;;;;;0.20;0.20;;;26.70;83.80;;;;;;5066977;28;20435;-55
2022/06/22 08:26:05;;;;;;;0.73;0.50;;;26.70;83.80;;;;;;5067510;28;20056;-67
2022/06/22 08:28:38;;;;;;;0.30;0.30;;;26.70;83.80;;;;;;5054224;28;20499;-60
2022/06/22 08:31:07;;;;;;;0.30;0.30;;;26.70;83.80;;;;;;5071309;28;20134;-59
2022/06/22 08:33:35;;;;;;;0.28;0.28;;;26.70;83.80;;;;;;5054476;28;20052;-60
2022/06/22 08:36:08;;;;;;;0.20;0.20;;;26.70;83.80;;;;;;5060641;28;20052;-60
2022/06/22 08:38:45;;;;;;;0.20;0.20;;;26.70;83.90;;;;;;5051223;28;20053;-58
2022/06/22 08:41:37;;;;;;;0.22;0.22;;;26.70;84.50;;;;;;5061471;28;20044;-61
2022/06/22 08:44:23;;;;;;;0.30;0.30;;;26.70;83.80;;;;;;5071386;28;20048;-61
2022/06/22 08:47:08;;;;;;;0.20;0.20;;;26.70;83.80;;;;;;5063492;28;20060;-58
2022/06/22 08:49:57;;;;;;;0.20;0.20;;;26.70;83.80;;;;;;5058697;28;20044;-67
2022/06/22 08:52:42;;;;;;;0.40;0.40;;;26.80;83.90;;;;;;5070043;28;20499;-54
2022/06/22 08:55:39;;;;;;;0.20;0.20;;;26.80;83.90;;;;;;5058539;28;20068;-59
2022/06/22 08:58:16;;;;;;;5.97;0.65;;;26.80;83.90;;;;;;5034708;28;20060;-59
2022/06/22 09:01:22;;;;;;;0.40;0.40;;;26.80;83.90;;;;;;5066292;28;20052;-58
2022/06/22 09:03:59;;;;;;;0.20;0.20;;;26.80;84.00;;;;;;5051918;28;20044;-62
2022/06/22 09:06:47;;;;;;;0.30;0.30;;;26.80;83.90;;;;;;5061264;28;20056;-63
2022/06/22 09:09:31;;;;;;;0.25;0.25;;;26.80;84.00;;;;;;5034218;28;20521;-57
2022/06/22 09:12:23;;;;;;;0.20;0.20;;;26.80;84.00;;;;;;5069681;28;20044;-63
2022/06/22 09:15:06;;;;;;;0.20;0.20;;;26.80;84.00;;;;;;5066283;28;20048;-61
2022/06/22 09:18:09;;;;;;;0.40;0.40;;;26.70;84.00;;;;;;5052747;28;20436;-61
2022/06/22 09:20:58;;;;;;;0.22;0.22;;;26.70;84.00;;;;;;5032741;28;20056;-59
2022/06/22 09:23:48;;;;;;;0.20;0.20;;;26.80;84.10;;;;;;5059128;28;20052;-58
2022/06/22 09:26:33;;;;;;;0.35;0.35;;;26.70;84.00;;;;;;5066363;28;20041;-61
2022/06/22 09:29:29;;;;;;;0.20;0.20;;;26.70;84.00;;;;;;5055591;28;20044;-64
2022/06/22 09:32:12;;;;;;;0.20;0.20;;;26.70;83.90;;;;;;5065114;28;20044;-60
2022/06/22 09:35:05;;;;;;;0.20;0.20;;;26.70;84.00;;;;;;5049368;28;20052;-58
2022/06/22 09:37:46;;;;;;;0.77;0.77;;;26.70;84.60;;;;;;5048396;28;20053;-61
2022/06/22 09:41:08;;;;;;;0.25;0.25;;;26.70;84.00;;;;;;5055230;28;20163;-61
2022/06/22 09:43:35;;;;;;;0.20;0.20;;;26.80;84.10;;;;;;4952461;28;20535;-60
2022/06/22 09:46:23;;;;;;;0.30;0.30;;;26.80;84.10;;;;;;5038711;28;20057;-58
2022/06/22 09:49:17;;;;;;;0.20;0.20;;;26.80;84.00;;;;;;5048318;28;20040;-60
2022/06/22 09:51:59;;;;;;;0.22;0.22;;;26.80;84.00;;;;;;5050128;28;20052;-57
2022/06/22 09:57:40;;;;;;;0.30;0.30;;;26.80;84.00;;;;;;5054509;28;20045;-61
2022/06/22 10:00:42;;;;;;;0.30;0.30;;;26.80;84.00;;;;;;5058251;28;20058;-61
2022/06/22 10:03:35;;;;;;;0.40;0.40;;;26.80;83.90;;;;;;5047284;28;20171;-62
2022/06/22 10:06:24;;;;;;;0.28;0.28;;;26.80;83.90;;;;;;5052937;28;20446;-63
2022/06/22 10:09:00;;;;;;;0.20;0.20;;;26.80;83.90;;;;;;5069374;28;20507;-62
2022/06/22 10:11:39;;;;;;;0.20;0.20;;;26.80;83.90;;;;;;5075788;28;20433;-63
2022/06/22 10:14:44;;;;;;;0.30;0.30;;;26.80;83.90;;;;;;5058643;28;20053;-62
2022/06/22 10:17:18;;;;;;;0.20;0.20;;;26.80;83.80;;;;;;5072776;28;20353;-58
2022/06/22 10:19:57;;;;;;;0.65;0.65;;;26.80;83.90;;;;;;5064692;28;20360;-62
2022/06/22 10:22:56;;;;;;;0.20;0.20;;;26.80;83.80;;;;;;5074950;28;20095;-58
2022/06/22 10:25:52;;;;;;;0.32;0.32;;;26.90;83.90;;;;;;5030746;28;20063;-57
2022/06/22 10:28:53;;;;;;;0.35;0.35;;;26.80;83.80;;;;;;5062461;28;20053;-59
2022/06/22 10:31:34;;;;;;;0.20;0.20;;;26.80;83.90;;;;;;5060299;28;20397;-57
2022/06/22 10:34:31;;;;;;;0.20;0.20;;;26.80;83.90;;;;;;5049551;28;20105;-65
2022/06/22 10:37:07;;;;;;;0.20;0.20;;;26.90;83.90;;;;;;5045060;28;20071;-59
2022/06/22 10:39:37;;;;;;;0.20;0.20;;;26.90;83.90;;;;;;5052912;28;20570;-63
2022/06/22 10:45:40;;;;;;;0.30;0.30;;;26.90;83.90;;;;;;5048750;28;20056;-59
2022/06/22 10:48:15;;;;;;;0.20;0.20;;;26.90;83.90;;;;;;5042677;28;20052;-58
2022/06/22 10:51:01;;;;;;;0.20;0.20;;;26.90;83.80;;;;;;5056027;28;20550;-60
2022/06/22 10:54:23;;;;;;;0.40;0.40;;;26.90;83.80;;;;;;5053636;28;20053;-57
2022/06/22 10:57:07;;;;;;;0.20;0.20;;;26.90;83.80;;;;;;4969734;28;20047;-59
2022/06/22 10:59:49;;;;;;;0.20;0.20;;;26.90;83.80;;;;;;5054530;28;20056;-61
2022/06/22 11:03:04;;;;;;;0.40;0.40;;;26.90;83.80;;;;;;5068901;28;20358;-58
2022/06/22 11:05:36;;;;;;;0.30;0.30;;;26.90;83.80;;;;;;5053730;28;20060;-58
2022/06/22 11:08:41;;;;;;;0.40;0.40;;;26.90;83.80;;;;;;5048667;28;20041;-58
2022/06/22 11:11:12;;;;;;;0.30;0.30;;;26.90;83.80;;;;;;5054550;28;20044;-57
2022/06/22 11:13:45;;;;;;;0.30;0.30;;;26.90;83.70;;;;;;5049961;28;20158;-57
2022/06/22 11:16:24;;;;;;;0.30;0.30;;;26.90;83.80;;;;;;5067674;28;20048;-56
2022/06/22 11:19:16;;;;;;;0.20;0.20;;;26.90;83.80;;;;;;5061064;28;20055;-59
2022/06/22 11:22:14;;;;;;;0.30;0.30;;;26.90;83.70;;;;;;5051503;28;20071;-57
2022/06/22 11:25:02;;;;;;;0.20;0.20;;;26.90;83.70;;;;;;5053153;28;20049;-56
2022/06/22 11:31:03;;;;;;;0.30;0.30;;;26.90;83.70;;;;;;5054598;28;20527;-58
2022/06/22 11:33:42;;;;;;;0.28;0.28;;;27.00;83.80;;;;;;5064401;28;20452;-62
2022/06/22 11:36:26;;;;;;;0.50;0.50;;;26.90;83.70;;;;;;5038732;28;20037;-57
2022/06/22 11:39:32;;;;;;;0.20;0.20;;;27.00;83.80;;;;;;5048670;28;20053;-57
2022/06/22 11:42:17;;;;;;;0.30;0.30;;;26.90;83.60;;;;;;5067259;28;20052;-57
2022/06/22 11:48:02;;;;;;;0.30;0.30;;;27.00;83.70;;;;;;5024691;28;20053;-57
2022/06/22 11:50:45;;;;;;;0.20;0.20;;;27.00;83.70;;;;;;5055090;28;20052;-57
2022/06/22 11:53:52;;;;;;;0.55;0.32;;;27.00;83.80;;;;;;5029340;28;20060;-56
2022/06/22 11:56:55;;;;;;;0.20;0.20;;;27.00;83.80;;;;;;5009000;28;20049;-56
2022/06/22 12:00:07;;;;;;;0.20;0.20;;;26.90;83.60;;;;;;5053726;28;20056;-58
2022/06/22 12:02:54;;;;;;;0.20;0.20;;;27.00;83.80;;;;;;5050167;28;20063;-58
2022/06/22 12:05:38;;;;;;;0.20;0.20;;;27.00;83.70;;;;;;5031661;28;20064;-55
2022/06/22 12:08:35;;;;;;;0.35;0.35;;;27.00;83.70;;;;;;5011806;28;20069;-54
2022/06/22 12:11:35;;;;;;;0.25;0.25;;;27.00;83.80;;;;;;5020355;28;20316;-58
2022/06/22 12:17:09;;;;;;;0.20;0.20;;;27.00;83.80;;;;;;5012376;28;20053;-59
2022/06/22 12:19:41;;;;;;;0.20;0.20;;;27.00;83.80;;;;;;5023088;28;20054;-57
2022/06/22 12:22:14;;;;;;;0.45;0.45;;;27.00;83.70;;;;;;5011903;28;20057;-57
2022/06/22 12:25:12;;;;;;;0.20;0.20;;;27.00;83.70;;;;;;5018830;28;20420;-57
2022/06/22 12:27:43;;;;;;;0.22;0.22;;;27.00;83.70;;;;;;5014628;28;20061;-59
2022/06/22 12:30:31;;;;;;;0.20;0.20;;;27.00;83.70;;;;;;5025705;28;20041;-56
2022/06/22 12:33:16;;;;;;;1.45;0.75;;;27.00;83.70;;;;;;5025122;28;20438;-54
2022/06/22 12:35:51;;;;;;;0.20;0.20;;;27.00;83.70;;;;;;5021250;28;20050;-54
2022/06/22 12:38:42;;;;;;;0.20;0.20;;;27.00;83.70;;;;;;5014626;28;20046;-59
2022/06/22 12:41:54;;;;;;;0.20;0.20;;;27.00;83.60;;;;;;5023551;28;20053;-55
2022/06/22 12:44:57;;;;;;;0.20;0.20;;;27.00;83.70;;;;;;5015415;28;20071;-58
2022/06/22 12:48:09;;;;;;;0.20;0.20;;;27.00;83.60;;;;;;4995525;28;20061;-57
2022/06/22 12:51:01;;;;;;;0.20;0.20;;;27.00;83.60;;;;;;5030793;28;20057;-56
2022/06/22 12:53:47;;;;;;;0.20;0.20;;;27.00;83.70;;;;;;5012477;28;20053;-59
2022/06/22 12:56:26;;;;;;;0.22;0.22;;;27.00;83.60;;;;;;5026110;28;20053;-57
2022/06/22 12:58:56;;;;;;;0.30;0.30;;;27.10;83.70;;;;;;5017099;28;20269;-57
2022/06/22 13:01:24;;;;;;;0.20;0.20;;;27.10;83.60;;;;;;5025513;28;20404;-58
2022/06/22 13:04:02;;;;;;;0.30;0.30;;;27.10;83.50;;;;;;5013747;28;20061;-58
2022/06/22 13:06:34;;;;;;;0.30;0.30;;;27.10;83.50;;;;;;5043038;28;20053;-60
2022/06/22 13:09:05;;;;;;;0.43;0.43;;;27.10;83.50;;;;;;5033990;28;20132;-60
2022/06/22 13:11:35;;;;;;;0.32;0.32;;;27.10;83.40;;;;;;5050967;28;20052;-58
2022/06/22 13:14:46;;;;;;;0.20;0.20;;;27.10;83.40;;;;;;5033606;28;20167;-60
2022/06/22 13:17:22;;;;;;;0.65;0.50;;;27.10;83.40;;;;;;5046036;28;20057;-59
2022/06/22 13:20:25;;;;;;;0.20;0.20;;;27.20;83.40;;;;;;5042922;28;20726;-57
2022/06/22 13:23:19;;;;;;;0.30;0.30;;;27.20;83.50;;;;;;5040256;28;20068;-59
2022/06/22 13:26:06;;;;;;;0.35;0.35;;;27.20;83.30;;;;;;5051827;28;20044;-53
2022/06/22 13:28:44;;;;;;;0.20;0.20;;;27.20;83.30;;;;;;5033371;28;20077;-57
2022/06/22 13:31:22;;;;;;;1.48;0.93;;;27.20;83.30;;;;;;5042352;28;20045;-56
2022/06/22 13:34:06;;;;;;;0.20;0.20;;;27.20;83.30;;;;;;5041268;28;20413;-56
2022/06/22 13:36:39;;;;;;;0.20;0.20;;;27.30;83.30;;;;;;5034493;28;20050;-57
2022/06/22 13:39:17;;;;;;;0.20;0.20;;;27.30;83.20;;;;;;5035086;28;20069;-55
2022/06/22 13:42:03;;;;;;;0.30;0.30;;;27.30;83.10;;;;;;5039193;28;20061;-58
2022/06/22 13:44:49;;;;;;;0.55;0.50;;;27.30;83.00;;;;;;5045497;28;20045;-58
2022/06/22 13:47:28;;;;;;;0.35;0.35;;;27.30;83.10;;;;;;5046120;28;20650;-59
2022/06/22 13:50:25;;;;;;;0.17;0.17;;;27.30;83.00;;;;;;5055578;28;20041;-61
2022/06/22 13:53:04;;;;;;;0.30;0.30;;;27.30;83.00;;;;;;5054629;28;20520;-57
2022/06/22 13:55:51;;;;;;;0.20;0.20;;;27.40;83.00;;;;;;5050594;28;20071;-56
2022/06/22 13:58:23;;;;;;;0.30;0.30;;;27.40;82.90;;;;;;5055169;28;20376;-59
2022/06/22 14:01:00;;;;;;;0.20;0.20;;;27.40;82.80;;;;;;5068638;28;20057;-54
2022/06/22 14:03:37;;;;;;;0.20;0.20;;;27.50;82.80;;;;;;5046920;28;20049;-56
2022/06/22 14:06:52;;;;;;;0.20;0.20;;;27.40;82.70;;;;;;5052466;28;20543;-55
2022/06/22 14:09:26;;;;;;;0.20;0.20;;;27.40;82.80;;;;;;5043219;28;20061;-59
2022/06/22 14:11:53;;;;;;;0.20;0.20;;;27.50;82.80;;;;;;5066915;28;20055;-57
2022/06/22 14:14:36;;;;;;;0.30;0.30;;;27.50;82.70;;;;;;5059670;28;20059;-56
2022/06/22 14:17:18;;;;;;;0.45;0.45;;;27.60;82.60;;;;;;5061574;28;20256;-55
2022/06/22 14:20:16;;;;;;;1.17;0.50;;;27.60;82.50;;;;;;5065563;28;20045;-56
2022/06/22 14:23:14;;;;;;;0.20;0.20;;;27.60;82.50;;;;;;5042393;28;20057;-58
2022/06/22 14:25:41;;;;;;;0.30;0.30;;;27.50;82.60;;;;;;5050641;28;20060;-57